Time;durP1;ratioP1;P1;durP2;ratioP2;P2;SDS_P1;SDS_P2;PMS_P1;PMS_P2;Temp;Humidity;BMP_temperature;BMP_pressure;BME280_temperature;BME280_humidity;BME280_pressure;Samples;Min_cycle;Max_cycle;Signal;HPM_P1;HPM_P2
2023/12/13 00:00:23;;;;;;;14.35;9.38;;;14.30;96.70;;;;;;4879159;29;20756;-61
2023/12/13 00:02:51;;;;;;;11.50;8.85;;;14.30;96.70;;;;;;4879793;29;20518;-60
2023/12/13 00:05:21;;;;;;;13.23;9.35;;;14.30;96.70;;;;;;4893135;29;20151;-60
2023/12/13 00:07:51;;;;;;;13.95;8.95;;;14.30;96.70;;;;;;4892486;29;20067;-61
2023/12/13 00:10:24;;;;;;;13.73;8.27;;;14.30;96.70;;;;;;4894038;29;20108;-61
2023/12/13 00:12:53;;;;;;;12.50;8.18;;;14.30;96.70;;;;;;4898056;29;20071;-60
2023/12/13 00:15:23;;;;;;;15.68;8.63;;;14.20;96.70;;;;;;4900165;29;20516;-61
2023/12/13 00:17:51;;;;;;;12.05;7.97;;;14.30;96.70;;;;;;4899546;29;20111;-61
2023/12/13 00:20:23;;;;;;;13.25;8.52;;;14.20;96.70;;;;;;4894539;29;20036;-61
2023/12/13 00:22:52;;;;;;;12.32;7.75;;;14.30;96.70;;;;;;4891030;29;20063;-61
2023/12/13 00:25:23;;;;;;;10.88;7.57;;;14.20;96.70;;;;;;4880381;29;20044;-61
2023/12/13 00:27:51;;;;;;;11.18;7.55;;;14.30;96.70;;;;;;4892950;29;20619;-61
2023/12/13 00:30:22;;;;;;;12.88;8.15;;;14.30;96.70;;;;;;4887283;29;20068;-60
2023/12/13 00:32:50;;;;;;;10.57;7.70;;;14.30;96.70;;;;;;4871910;29;20440;-61
2023/12/13 00:35:19;;;;;;;12.45;8.18;;;14.30;96.70;;;;;;4891231;29;20543;-61
2023/12/13 00:37:50;;;;;;;12.05;7.65;;;14.30;96.70;;;;;;4876234;29;20491;-61
2023/12/13 00:40:22;;;;;;;12.98;7.30;;;14.30;96.70;;;;;;4864576;29;20426;-60
2023/12/13 00:42:54;;;;;;;10.93;7.75;;;14.40;96.70;;;;;;4876909;29;20539;-61
2023/12/13 00:45:22;;;;;;;12.05;7.28;;;14.40;96.70;;;;;;4879287;29;20049;-61
2023/12/13 00:47:51;;;;;;;9.30;7.18;;;14.40;96.70;;;;;;4872810;29;20072;-61
2023/12/13 00:50:19;;;;;;;13.70;7.53;;;14.40;96.70;;;;;;4876698;29;20045;-60
2023/12/13 00:52:49;;;;;;;11.10;7.38;;;14.40;96.70;;;;;;4881556;29;20083;-61
2023/12/13 00:55:19;;;;;;;11.73;8.15;;;14.40;96.70;;;;;;4895336;29;20044;-61
2023/12/13 00:57:47;;;;;;;12.68;9.05;;;14.40;96.70;;;;;;4869335;29;20571;-61
2023/12/13 01:00:18;;;;;;;12.77;8.48;;;14.40;96.70;;;;;;4858698;29;20091;-61
2023/12/13 01:02:47;;;;;;;12.27;8.57;;;14.30;96.70;;;;;;4871088;29;20566;-60
2023/12/13 01:05:16;;;;;;;12.88;8.13;;;14.30;96.70;;;;;;4878481;29;20044;-61
2023/12/13 01:07:45;;;;;;;11.68;8.45;;;14.30;96.70;;;;;;4899532;29;20076;-61
2023/12/13 01:10:13;;;;;;;14.20;8.77;;;14.30;96.70;;;;;;4888931;29;20072;-61
2023/12/13 01:12:43;;;;;;;10.95;7.55;;;14.30;96.70;;;;;;4890267;29;20044;-61
2023/12/13 01:15:14;;;;;;;11.77;8.55;;;14.30;96.70;;;;;;4899582;29;20051;-61
2023/12/13 01:17:46;;;;;;;11.88;8.55;;;14.40;96.70;;;;;;4899282;29;20043;-61
2023/12/13 01:20:16;;;;;;;8.98;7.53;;;14.30;96.70;;;;;;4886127;29;20048;-61
2023/12/13 01:22:44;;;;;;;11.52;8.32;;;14.40;96.70;;;;;;4886648;29;20055;-61
2023/12/13 01:25:14;;;;;;;12.68;7.95;;;14.40;96.70;;;;;;4896557;29;20138;-61
2023/12/13 01:27:42;;;;;;;14.93;10.02;;;14.40;96.70;;;;;;4908167;29;20056;-61
2023/12/13 01:30:11;;;;;;;10.68;8.32;;;14.40;96.70;;;;;;4878428;29;20054;-61
2023/12/13 01:32:40;;;;;;;11.75;8.35;;;14.40;96.70;;;;;;4860570;29;20148;-61
2023/12/13 01:35:10;;;;;;;10.25;7.82;;;14.40;96.70;;;;;;4891119;29;20423;-61
2023/12/13 01:37:39;;;;;;;12.30;8.50;;;14.40;96.70;;;;;;4853450;29;20041;-61
2023/12/13 01:40:08;;;;;;;13.55;8.30;;;14.40;96.70;;;;;;4844371;29;20063;-61
2023/12/13 01:42:38;;;;;;;13.75;9.50;;;14.40;96.70;;;;;;4861030;29;20068;-61
2023/12/13 01:45:08;;;;;;;13.40;9.10;;;14.40;96.70;;;;;;4858391;29;20654;-61
2023/12/13 01:47:39;;;;;;;10.88;7.70;;;14.40;96.70;;;;;;4851840;29;20072;-61
2023/12/13 01:50:11;;;;;;;12.45;7.80;;;14.40;96.70;;;;;;4856675;29;20117;-61
2023/12/13 01:52:40;;;;;;;11.18;8.07;;;14.40;96.70;;;;;;4859162;29;20048;-61
2023/12/13 01:55:10;;;;;;;10.63;8.07;;;14.30;96.70;;;;;;4852950;29;20060;-61
2023/12/13 01:57:39;;;;;;;15.02;8.80;;;14.40;96.70;;;;;;4857382;29;20049;-62
2023/12/13 02:00:09;;;;;;;13.35;7.80;;;14.40;96.70;;;;;;4875683;29;20108;-62
2023/12/13 02:02:41;;;;;;;14.10;7.82;;;14.40;96.70;;;;;;4912676;29;20040;-61
2023/12/13 02:05:13;;;;;;;10.85;8.30;;;14.40;96.70;;;;;;4904358;29;20139;-61
2023/12/13 02:07:44;;;;;;;15.82;7.43;;;14.40;96.70;;;;;;4888334;29;20512;-61
2023/12/13 02:10:15;;;;;;;12.18;7.80;;;14.40;96.70;;;;;;4902762;29;20072;-62
2023/12/13 02:12:44;;;;;;;10.55;7.65;;;14.40;96.70;;;;;;4889177;29;20124;-61
2023/12/13 02:15:13;;;;;;;11.35;7.70;;;14.40;96.70;;;;;;4874562;29;20081;-61
2023/12/13 02:17:48;;;;;;;10.52;7.90;;;14.40;96.70;;;;;;4883128;29;20052;-61
2023/12/13 02:20:21;;;;;;;11.20;7.22;;;14.40;96.70;;;;;;4889599;29;20047;-61
2023/12/13 02:22:51;;;;;;;9.75;7.28;;;14.40;96.70;;;;;;4897559;29;20503;-61
2023/12/13 02:25:29;;;;;;;11.63;7.35;;;14.40;96.70;;;;;;4906589;29;20122;-61
2023/12/13 02:27:58;;;;;;;12.18;8.00;;;14.40;96.70;;;;;;4894627;29;20051;-62
2023/12/13 02:30:29;;;;;;;13.40;8.30;;;14.40;96.70;;;;;;4888023;29;20052;-61
2023/12/13 02:32:57;;;;;;;11.15;7.20;;;14.40;96.70;;;;;;4893832;29;20086;-61
2023/12/13 02:35:26;;;;;;;13.05;6.95;;;14.40;96.70;;;;;;4905998;29;20040;-61
2023/12/13 02:37:57;;;;;;;11.45;7.35;;;14.40;96.70;;;;;;4898364;29;20130;-61
2023/12/13 02:40:26;;;;;;;12.88;7.25;;;14.40;96.70;;;;;;4896718;29;20147;-61
2023/12/13 02:42:57;;;;;;;11.15;7.53;;;14.40;96.70;;;;;;4883902;29;20613;-60
2023/12/13 02:45:26;;;;;;;11.38;7.82;;;14.40;96.70;;;;;;4893005;29;20104;-61
2023/12/13 02:47:56;;;;;;;12.15;7.68;;;14.40;96.70;;;;;;4876950;29;20040;-61
2023/12/13 02:50:24;;;;;;;11.73;7.25;;;14.40;96.70;;;;;;4858466;29;20069;-61
2023/12/13 02:52:53;;;;;;;9.52;7.32;;;14.40;96.70;;;;;;4861902;29;20045;-61
2023/12/13 02:55:24;;;;;;;13.55;7.03;;;14.40;96.70;;;;;;4886661;29;20048;-62
2023/12/13 02:57:53;;;;;;;11.18;6.93;;;14.40;96.70;;;;;;4879001;29;20056;-61
2023/12/13 03:03:18;;;;;;;11.63;6.75;;;14.30;96.70;;;;;;5303986;23;20134;-62
2023/12/13 03:05:47;;;;;;;12.75;7.35;;;14.40;96.70;;;;;;4879658;29;20103;-62
2023/12/13 03:08:18;;;;;;;12.35;7.35;;;14.30;96.70;;;;;;4907287;29;20082;-62
2023/12/13 03:10:50;;;;;;;10.93;6.80;;;14.30;96.70;;;;;;4911181;29;20445;-62
2023/12/13 03:13:20;;;;;;;10.98;6.75;;;14.30;96.70;;;;;;4888789;29;20063;-62
2023/12/13 03:15:50;;;;;;;10.88;6.47;;;14.30;96.70;;;;;;4888445;29;20066;-62
2023/12/13 03:18:22;;;;;;;10.73;5.68;;;14.30;96.70;;;;;;4889959;29;20066;-62
2023/12/13 03:20:54;;;;;;;11.48;5.55;;;14.40;96.70;;;;;;4903729;29;20074;-63
2023/12/13 03:23:22;;;;;;;11.15;4.63;;;14.40;96.70;;;;;;4893688;29;20143;-62
2023/12/13 03:25:53;;;;;;;11.98;3.97;;;14.50;96.70;;;;;;4893486;29;20502;-62
2023/12/13 03:28:22;;;;;;;13.02;4.03;;;14.60;96.70;;;;;;4894817;29;20165;-62
2023/12/13 03:30:51;;;;;;;13.13;3.97;;;14.60;96.70;;;;;;4892996;29;20036;-62
2023/12/13 03:33:19;;;;;;;10.02;3.92;;;14.70;96.70;;;;;;4896914;29;20126;-62
2023/12/13 03:35:49;;;;;;;11.95;4.55;;;14.70;96.70;;;;;;4892793;29;20091;-62
2023/12/13 03:38:17;;;;;;;11.13;3.65;;;14.70;96.70;;;;;;4896466;29;20151;-62
2023/12/13 03:40:48;;;;;;;12.80;4.00;;;14.80;96.70;;;;;;4882915;29;20471;-62
2023/12/13 03:43:21;;;;;;;10.95;3.83;;;14.80;96.70;;;;;;4910396;29;20055;-62
2023/12/13 03:45:52;;;;;;;11.00;3.58;;;14.80;96.70;;;;;;4896852;29;20064;-62
2023/12/13 03:48:20;;;;;;;13.07;3.38;;;14.90;96.70;;;;;;4911248;29;20513;-62
2023/12/13 03:50:51;;;;;;;13.60;3.95;;;14.80;96.70;;;;;;4895550;29;20080;-62
2023/12/13 03:53:20;;;;;;;11.20;3.58;;;14.90;96.70;;;;;;4895397;29;20044;-62
2023/12/13 03:55:48;;;;;;;10.93;3.35;;;14.90;96.70;;;;;;4899245;29;20055;-62
2023/12/13 03:58:20;;;;;;;14.30;3.80;;;14.90;96.70;;;;;;4872095;29;20085;-62
2023/12/13 04:00:51;;;;;;;11.48;3.33;;;15.00;96.70;;;;;;4861230;29;20078;-62
2023/12/13 04:03:19;;;;;;;12.02;3.60;;;15.00;96.70;;;;;;4859153;29;20092;-62
2023/12/13 04:05:48;;;;;;;12.88;3.00;;;15.00;96.70;;;;;;4855140;29;20063;-61
2023/12/13 04:08:17;;;;;;;9.23;2.83;;;15.00;96.70;;;;;;4862648;29;20048;-62
2023/12/13 04:10:46;;;;;;;10.98;3.00;;;15.00;96.70;;;;;;4867901;29;20040;-62
2023/12/13 04:13:14;;;;;;;12.82;3.95;;;15.10;96.70;;;;;;4862694;29;20447;-62
2023/12/13 04:15:44;;;;;;;7.05;2.88;;;15.00;96.70;;;;;;4858762;29;20101;-62
2023/12/13 04:18:14;;;;;;;15.50;4.07;;;15.00;96.70;;;;;;4861700;29;20520;-62
2023/12/13 04:20:42;;;;;;;9.27;2.60;;;15.00;96.70;;;;;;4856816;29;20071;-62
2023/12/13 04:23:12;;;;;;;11.50;3.17;;;15.00;96.70;;;;;;4873175;29;20061;-62
2023/12/13 04:25:41;;;;;;;12.70;2.90;;;15.00;96.70;;;;;;4856713;29;20180;-62
2023/12/13 04:28:11;;;;;;;12.20;3.10;;;15.00;96.70;;;;;;4858425;29;20057;-62
2023/12/13 04:30:42;;;;;;;12.90;3.17;;;15.00;96.70;;;;;;4874414;29;20044;-62
2023/12/13 04:33:12;;;;;;;7.57;3.05;;;15.00;96.70;;;;;;4859791;29;20522;-62
2023/12/13 04:35:42;;;;;;;13.48;4.43;;;15.00;96.70;;;;;;4873554;29;20048;-62
2023/12/13 04:38:11;;;;;;;12.48;3.03;;;15.00;96.70;;;;;;4889998;29;20557;-62
2023/12/13 04:40:40;;;;;;;13.68;3.55;;;14.90;96.70;;;;;;4887485;29;20043;-62
2023/12/13 04:43:08;;;;;;;15.00;3.92;;;14.90;96.70;;;;;;4899829;29;20043;-63
2023/12/13 04:45:36;;;;;;;15.80;3.92;;;14.90;96.70;;;;;;4899562;29;20108;-62
2023/12/13 04:48:05;;;;;;;7.30;2.83;;;14.90;96.70;;;;;;4898688;29;20058;-62
2023/12/13 04:50:36;;;;;;;11.85;3.63;;;14.90;96.70;;;;;;4890681;29;20063;-62
2023/12/13 04:53:05;;;;;;;14.50;4.50;;;14.90;96.70;;;;;;4890479;29;20091;-62
2023/12/13 04:55:34;;;;;;;10.73;3.15;;;14.90;96.70;;;;;;4878101;29;20135;-62
2023/12/13 04:58:04;;;;;;;6.93;2.88;;;14.90;96.70;;;;;;4895967;29;20064;-62
2023/12/13 05:00:33;;;;;;;8.73;2.92;;;14.90;96.70;;;;;;4899254;29;20054;-62
2023/12/13 05:03:01;;;;;;;12.98;3.50;;;14.90;96.70;;;;;;4892574;29;20074;-62
2023/12/13 05:05:30;;;;;;;9.55;2.92;;;14.90;96.70;;;;;;4914079;29;20130;-62
2023/12/13 05:08:03;;;;;;;8.88;3.00;;;14.90;96.70;;;;;;4899931;29;20538;-62
2023/12/13 05:10:32;;;;;;;11.60;3.15;;;14.90;96.70;;;;;;4895856;29;20059;-62
2023/12/13 05:13:02;;;;;;;12.43;3.60;;;14.90;96.70;;;;;;4891719;29;20122;-63
2023/12/13 05:15:31;;;;;;;11.00;3.42;;;14.90;96.70;;;;;;4897540;29;20067;-62
2023/12/13 05:18:01;;;;;;;9.38;3.90;;;14.90;96.70;;;;;;4876425;29;20048;-62
2023/12/13 05:20:32;;;;;;;10.40;3.40;;;14.90;96.70;;;;;;4893800;29;20052;-62
2023/12/13 05:23:03;;;;;;;14.13;3.17;;;14.90;96.70;;;;;;4897345;29;20039;-62
2023/12/13 05:25:33;;;;;;;9.38;3.35;;;14.90;96.70;;;;;;4913723;29;20074;-62
2023/12/13 05:28:01;;;;;;;7.95;3.40;;;14.90;96.70;;;;;;4867079;29;20850;-62
2023/12/13 05:30:30;;;;;;;10.57;3.25;;;14.90;96.70;;;;;;4882892;29;20052;-62
2023/12/13 05:32:59;;;;;;;13.50;2.92;;;14.80;96.70;;;;;;4908408;29;20143;-63
2023/12/13 05:35:28;;;;;;;9.15;3.25;;;14.80;96.70;;;;;;4894787;29;20047;-63
2023/12/13 05:37:56;;;;;;;8.70;2.83;;;14.90;96.70;;;;;;4890374;29;20073;-63
2023/12/13 05:40:27;;;;;;;6.22;2.63;;;14.90;96.70;;;;;;4894244;29;20059;-62
2023/12/13 05:42:55;;;;;;;8.45;3.03;;;14.90;96.70;;;;;;4891330;29;20043;-63
2023/12/13 05:45:25;;;;;;;10.10;3.00;;;14.80;96.70;;;;;;4895570;29;20044;-63
2023/12/13 05:47:54;;;;;;;5.82;2.50;;;14.90;96.70;;;;;;4892729;29;20052;-62
2023/12/13 05:50:24;;;;;;;9.68;2.75;;;14.90;96.70;;;;;;4901946;29;20074;-63
2023/12/13 05:52:52;;;;;;;7.22;3.03;;;14.80;96.70;;;;;;4877866;29;20589;-63
2023/12/13 05:55:29;;;;;;;6.70;2.58;;;14.80;96.70;;;;;;4889247;29;20094;-63
2023/12/13 05:57:58;;;;;;;7.00;2.53;;;14.80;96.70;;;;;;4898499;29;20147;-63
2023/12/13 06:00:28;;;;;;;13.07;4.03;;;14.80;96.70;;;;;;4882606;29;20060;-63
2023/12/13 06:02:58;;;;;;;14.15;4.25;;;14.80;96.70;;;;;;4887128;29;20052;-63
2023/12/13 06:05:28;;;;;;;14.38;5.43;;;14.80;96.70;;;;;;4886041;29;20082;-63
2023/12/13 06:07:56;;;;;;;14.60;4.45;;;14.80;96.70;;;;;;4886683;29;20048;-63
2023/12/13 06:10:26;;;;;;;14.85;4.32;;;14.80;96.70;;;;;;4866989;29;20045;-63
2023/12/13 06:12:57;;;;;;;8.38;3.38;;;14.80;96.70;;;;;;4890858;29;20157;-63
2023/12/13 06:15:25;;;;;;;9.43;3.83;;;14.80;96.70;;;;;;4886966;29;20048;-63
2023/12/13 06:17:53;;;;;;;11.00;3.33;;;14.90;96.70;;;;;;4881306;29;20063;-63
2023/12/13 06:20:22;;;;;;;14.50;3.95;;;14.80;96.70;;;;;;4857964;29;20083;-63
2023/12/13 06:22:54;;;;;;;12.38;3.35;;;14.80;96.70;;;;;;4873626;29;20048;-63
2023/12/13 06:25:26;;;;;;;9.98;3.90;;;14.80;96.70;;;;;;4868788;29;20456;-62
2023/12/13 06:27:57;;;;;;;15.75;4.90;;;14.80;96.70;;;;;;4857869;29;20064;-63
2023/12/13 06:30:26;;;;;;;12.45;4.13;;;14.80;96.70;;;;;;4874521;29;20143;-63
2023/12/13 06:32:55;;;;;;;13.35;4.28;;;14.80;96.70;;;;;;4879715;29;20468;-63
2023/12/13 06:35:24;;;;;;;8.02;3.72;;;14.80;96.70;;;;;;4869724;29;20214;-63
2023/12/13 06:37:52;;;;;;;10.50;3.50;;;14.80;96.70;;;;;;4851510;29;20105;-63
2023/12/13 06:40:24;;;;;;;10.77;3.72;;;14.80;96.70;;;;;;4840767;29;20048;-63
2023/12/13 06:42:59;;;;;;;14.15;3.50;;;14.80;96.70;;;;;;4857944;29;20089;-63
2023/12/13 06:45:28;;;;;;;8.73;3.65;;;14.80;96.70;;;;;;4841264;29;20499;-63
2023/12/13 06:47:57;;;;;;;11.73;3.55;;;14.80;96.70;;;;;;4854137;29;20053;-63
2023/12/13 06:50:27;;;;;;;10.98;3.20;;;14.80;96.70;;;;;;4828360;29;20057;-63
2023/12/13 06:52:56;;;;;;;10.77;3.22;;;14.80;96.70;;;;;;4847348;29;20053;-62
2023/12/13 06:55:24;;;;;;;6.40;2.80;;;14.80;96.70;;;;;;4851241;29;20112;-64
2023/12/13 06:57:53;;;;;;;9.90;3.60;;;14.80;96.70;;;;;;4855967;29;20093;-63
2023/12/13 07:00:27;;;;;;;14.75;4.30;;;14.80;96.70;;;;;;4841459;29;20097;-62
2023/12/13 07:02:59;;;;;;;8.93;3.30;;;14.80;96.70;;;;;;4836878;29;20485;-65
2023/12/13 07:05:27;;;;;;;14.38;4.35;;;14.90;96.70;;;;;;4867983;29;20151;-63
2023/12/13 07:07:56;;;;;;;10.65;3.17;;;14.90;96.70;;;;;;4889435;29;20494;-63
2023/12/13 07:10:28;;;;;;;8.90;3.53;;;14.90;96.70;;;;;;4899705;29;20055;-64
2023/12/13 07:12:56;;;;;;;16.25;4.60;;;14.90;96.70;;;;;;4916072;29;20055;-64
2023/12/13 07:15:27;;;;;;;9.38;4.20;;;14.90;96.70;;;;;;4900327;29;20078;-64
2023/12/13 07:17:55;;;;;;;10.40;3.20;;;14.90;96.70;;;;;;4899403;29;20047;-64
2023/12/13 07:20:23;;;;;;;12.70;4.00;;;14.80;96.70;;;;;;4904009;29;20059;-64
2023/12/13 07:22:52;;;;;;;12.20;4.00;;;14.80;96.70;;;;;;4894848;29;20048;-64
2023/12/13 07:25:22;;;;;;;11.65;4.15;;;14.90;96.70;;;;;;4928339;29;20702;-64
2023/12/13 07:27:51;;;;;;;12.10;3.75;;;14.90;96.70;;;;;;4915542;29;20090;-64
2023/12/13 07:30:23;;;;;;;11.48;4.18;;;14.80;96.70;;;;;;4904146;29;20115;-64
2023/12/13 07:32:55;;;;;;;8.05;3.85;;;14.80;96.70;;;;;;4902829;29;20059;-64
2023/12/13 07:35:26;;;;;;;9.80;3.60;;;14.80;96.70;;;;;;4898837;29;20056;-64
2023/12/13 07:37:55;;;;;;;10.60;3.95;;;14.90;96.70;;;;;;4903261;29;20056;-64
2023/12/13 07:40:27;;;;;;;9.50;3.60;;;14.90;96.70;;;;;;4887355;29;20094;-64
2023/12/13 07:42:55;;;;;;;10.70;4.03;;;14.90;96.70;;;;;;4905096;29;20056;-64
2023/12/13 07:45:27;;;;;;;13.80;4.38;;;14.90;96.70;;;;;;4902584;29;20045;-64
2023/12/13 07:47:58;;;;;;;12.88;4.18;;;14.90;96.70;;;;;;4891963;29;20341;-64
2023/12/13 07:50:45;;;;;;;15.35;4.70;;;14.90;96.70;;;;;;4883750;29;20554;-64
2023/12/13 07:53:14;;;;;;;15.50;3.75;;;14.90;96.70;;;;;;4884933;29;20052;-64
2023/12/13 07:55:42;;;;;;;10.57;3.88;;;14.90;96.70;;;;;;4888694;29;20051;-64
2023/12/13 07:58:11;;;;;;;9.95;3.80;;;14.90;96.70;;;;;;4888055;29;20048;-64
2023/12/13 08:00:39;;;;;;;8.35;4.05;;;15.00;96.70;;;;;;4910802;29;20090;-64
2023/12/13 08:03:10;;;;;;;14.25;4.63;;;15.00;96.70;;;;;;4915664;29;20044;-65
2023/12/13 08:05:40;;;;;;;17.83;5.00;;;15.00;96.70;;;;;;4898474;29;20506;-64
2023/12/13 08:08:09;;;;;;;34.92;6.70;;;15.00;96.70;;;;;;4894140;29;20122;-64
2023/12/13 08:10:40;;;;;;;20.27;6.90;;;15.00;96.70;;;;;;4892384;29;20694;-64
2023/12/13 08:13:10;;;;;;;20.70;6.63;;;15.00;96.70;;;;;;4900511;29;20066;-64
2023/12/13 08:15:39;;;;;;;11.82;5.90;;;15.00;96.70;;;;;;4893331;29;20052;-64
2023/12/13 08:18:10;;;;;;;8.85;4.28;;;15.00;96.70;;;;;;4903431;29;20178;-64
2023/12/13 08:20:41;;;;;;;14.02;4.18;;;15.00;96.70;;;;;;4889646;29;20513;-64
2023/12/13 08:23:10;;;;;;;17.80;4.55;;;15.00;96.70;;;;;;4901135;29;20050;-64
2023/12/13 08:25:40;;;;;;;15.00;4.80;;;15.00;96.70;;;;;;4894556;29;20051;-64
2023/12/13 08:28:09;;;;;;;20.00;5.35;;;15.10;96.70;;;;;;4892922;29;20096;-64
2023/12/13 08:30:37;;;;;;;18.77;5.22;;;15.10;96.70;;;;;;4889442;29;20056;-64
2023/12/13 08:33:08;;;;;;;12.45;4.03;;;15.10;96.70;;;;;;4890034;29;20507;-64
2023/12/13 08:35:39;;;;;;;9.85;3.85;;;15.10;96.70;;;;;;4885732;29;20056;-64
2023/12/13 08:38:07;;;;;;;10.05;4.07;;;15.20;96.70;;;;;;4892041;29;20104;-64
2023/12/13 08:40:36;;;;;;;14.55;5.05;;;15.20;96.70;;;;;;4900004;29;20071;-65
2023/12/13 08:43:05;;;;;;;11.30;5.03;;;15.20;96.70;;;;;;4893409;29;20056;-64
2023/12/13 08:45:34;;;;;;;10.48;5.18;;;15.20;96.70;;;;;;4897037;29;20159;-64
2023/12/13 08:48:03;;;;;;;12.35;4.55;;;15.30;96.70;;;;;;4900588;29;20047;-63
2023/12/13 08:50:32;;;;;;;11.43;4.53;;;15.30;96.70;;;;;;4883485;29;20082;-64
2023/12/13 08:53:04;;;;;;;15.07;4.63;;;15.40;96.70;;;;;;4908360;29;20399;-64
2023/12/13 08:55:33;;;;;;;17.95;4.15;;;15.40;96.70;;;;;;4905431;29;20405;-64
2023/12/13 08:58:01;;;;;;;6.15;3.40;;;15.50;96.70;;;;;;4885431;29;20048;-64
2023/12/13 09:00:30;;;;;;;7.28;3.60;;;15.50;96.70;;;;;;4900755;29;20074;-64
2023/12/13 09:03:01;;;;;;;10.18;3.38;;;15.50;96.70;;;;;;4897492;29;20043;-64
2023/12/13 09:05:30;;;;;;;9.15;3.40;;;15.50;96.70;;;;;;4862962;29;20052;-64
2023/12/13 09:07:58;;;;;;;10.02;4.22;;;15.50;96.70;;;;;;4872529;29;20101;-64
2023/12/13 09:10:29;;;;;;;8.27;3.83;;;15.40;96.70;;;;;;4859644;29;20056;-64
2023/12/13 09:12:58;;;;;;;15.63;5.82;;;15.50;96.70;;;;;;4874623;29;20075;-64
2023/12/13 09:15:29;;;;;;;13.57;6.10;;;15.50;96.70;;;;;;4873472;29;20642;-64
2023/12/13 09:17:58;;;;;;;15.02;5.88;;;15.50;96.70;;;;;;4857972;29;20132;-64
2023/12/13 09:20:26;;;;;;;12.15;5.22;;;15.50;96.70;;;;;;4868719;29;20056;-64
2023/12/13 09:22:55;;;;;;;12.05;5.13;;;15.40;96.70;;;;;;4871630;29;20104;-64
2023/12/13 09:25:25;;;;;;;13.55;5.78;;;15.40;96.70;;;;;;4862773;29;20079;-64
2023/12/13 09:27:57;;;;;;;11.95;6.50;;;15.40;96.70;;;;;;4864693;29;20055;-64
2023/12/13 09:30:27;;;;;;;11.80;5.50;;;15.50;96.70;;;;;;4871833;29;20045;-64
2023/12/13 09:32:55;;;;;;;12.80;5.55;;;15.50;96.70;;;;;;4873657;29;20064;-64
2023/12/13 09:35:25;;;;;;;17.35;6.97;;;15.50;96.70;;;;;;4875815;29;20053;-64
2023/12/13 09:37:53;;;;;;;15.05;7.28;;;15.50;96.70;;;;;;4880414;29;20055;-63
2023/12/13 09:40:22;;;;;;;17.27;7.13;;;15.50;96.70;;;;;;4891087;29;20075;-64
2023/12/13 09:42:52;;;;;;;15.27;6.60;;;15.50;96.70;;;;;;4868488;29;20155;-64
2023/12/13 09:45:23;;;;;;;11.02;5.45;;;15.50;96.70;;;;;;4863358;29;20060;-64
2023/12/13 09:47:54;;;;;;;9.68;4.82;;;15.50;96.70;;;;;;4870821;29;20053;-64
2023/12/13 09:50:23;;;;;;;12.73;5.45;;;15.50;96.70;;;;;;4879512;29;20508;-64
2023/12/13 09:52:55;;;;;;;13.10;4.70;;;15.60;96.70;;;;;;4879168;29;20127;-64
2023/12/13 09:55:25;;;;;;;9.02;3.53;;;15.60;96.70;;;;;;4863330;29;20052;-64
2023/12/13 09:57:55;;;;;;;8.57;3.55;;;15.60;96.70;;;;;;4882256;29;20052;-63
2023/12/13 10:00:25;;;;;;;8.43;5.35;;;15.50;96.70;;;;;;4868523;29;20044;-64
2023/12/13 10:02:53;;;;;;;10.82;3.30;;;15.50;96.70;;;;;;4871775;29;20072;-65
2023/12/13 10:05:22;;;;;;;10.38;3.17;;;15.50;96.70;;;;;;4889806;29;20047;-64
2023/12/13 10:07:59;;;;;;;6.60;2.90;;;15.50;96.70;;;;;;4870726;29;20088;-64
2023/12/13 10:10:31;;;;;;;16.23;7.13;;;15.50;96.70;;;;;;4873344;29;20504;-64
2023/12/13 10:13:01;;;;;;;10.18;3.30;;;15.50;96.70;;;;;;4887897;29;20186;-64
2023/12/13 10:15:33;;;;;;;9.02;2.92;;;15.50;96.70;;;;;;4869125;29;20312;-63
2023/12/13 10:18:04;;;;;;;7.80;2.03;;;15.50;96.70;;;;;;4877820;29;20056;-68
2023/12/13 10:20:34;;;;;;;8.70;2.10;;;15.50;96.70;;;;;;4888207;29;20060;-65
2023/12/13 10:23:05;;;;;;;6.82;2.45;;;15.60;96.70;;;;;;4861185;29;20502;-64
2023/12/13 10:25:37;;;;;;;7.20;3.22;;;15.70;96.70;;;;;;4870988;29;20127;-64
2023/12/13 10:28:06;;;;;;;9.23;2.38;;;15.70;96.70;;;;;;4879767;29;20055;-64
2023/12/13 10:30:37;;;;;;;10.05;2.13;;;15.70;96.70;;;;;;4878321;29;20068;-64
2023/12/13 10:33:07;;;;;;;7.00;1.98;;;15.70;96.70;;;;;;4871460;29;20056;-64
2023/12/13 10:35:35;;;;;;;10.95;2.03;;;15.80;96.70;;;;;;4890435;29;20088;-64
2023/12/13 10:38:06;;;;;;;10.68;3.65;;;15.90;96.70;;;;;;4889971;29;20147;-63
2023/12/13 10:40:35;;;;;;;7.15;2.50;;;15.90;96.70;;;;;;4890596;29;20243;-64
2023/12/13 10:43:08;;;;;;;7.65;2.22;;;16.00;96.70;;;;;;4879313;29;20515;-63
2023/12/13 10:45:43;;;;;;;9.73;2.13;;;16.00;96.70;;;;;;4868307;29;20051;-64
2023/12/13 10:48:16;;;;;;;7.25;1.58;;;16.10;96.70;;;;;;4869126;29;20056;-63
2023/12/13 10:50:48;;;;;;;7.15;1.63;;;16.10;96.70;;;;;;4860425;29;20065;-63
2023/12/13 10:53:18;;;;;;;7.05;1.90;;;16.10;96.70;;;;;;4872407;29;20891;-63
2023/12/13 10:55:47;;;;;;;5.50;1.80;;;16.20;96.70;;;;;;4845126;29;20080;-63
2023/12/13 10:58:16;;;;;;;5.22;1.80;;;16.30;96.70;;;;;;4870244;29;20423;-63
2023/12/13 11:00:48;;;;;;;6.05;1.20;;;16.40;96.70;;;;;;4850217;29;20059;-63
2023/12/13 11:03:22;;;;;;;5.95;1.67;;;16.40;96.70;;;;;;4855060;29;20076;-62
2023/12/13 11:05:51;;;;;;;7.60;2.20;;;16.50;96.70;;;;;;4865611;29;20139;-64
2023/12/13 11:08:20;;;;;;;7.25;1.80;;;16.60;96.70;;;;;;4866507;29;20049;-63
2023/12/13 11:11:10;;;;;;;8.13;1.70;;;16.60;96.70;;;;;;4843245;29;20059;-64
2023/12/13 11:13:48;;;;;;;5.53;1.40;;;16.60;96.70;;;;;;4857327;29;20045;-64
2023/12/13 11:16:22;;;;;;;9.15;1.63;;;16.60;96.70;;;;;;4851449;29;20049;-63
2023/12/13 11:18:52;;;;;;;7.90;1.50;;;16.60;96.70;;;;;;4856212;29;20048;-64
2023/12/13 11:21:27;;;;;;;6.50;1.50;;;16.60;96.70;;;;;;4877419;29;20088;-64
2023/12/13 11:24:00;;;;;;;5.70;1.75;;;16.70;96.70;;;;;;4870470;29;20045;-64
2023/12/13 11:26:30;;;;;;;4.70;1.42;;;16.70;96.70;;;;;;4877567;29;20551;-64
2023/12/13 11:29:00;;;;;;;7.38;1.63;;;16.70;96.70;;;;;;4875521;29;20105;-64
2023/12/13 11:31:33;;;;;;;6.43;1.85;;;16.70;96.70;;;;;;4868332;29;20429;-63
2023/12/13 11:34:06;;;;;;;5.43;1.25;;;16.60;96.70;;;;;;4863072;29;20555;-63
2023/12/13 11:36:39;;;;;;;10.27;1.73;;;16.60;96.70;;;;;;4882510;29;20147;-63
2023/12/13 11:39:09;;;;;;;8.02;1.80;;;16.60;96.70;;;;;;4873382;29;20060;-63
2023/12/13 11:41:41;;;;;;;10.18;1.42;;;16.50;96.70;;;;;;4869500;29;20044;-63
2023/12/13 11:44:12;;;;;;;11.10;1.88;;;16.50;96.70;;;;;;4869938;29;20503;-63
2023/12/13 11:46:42;;;;;;;8.85;1.98;;;16.50;96.70;;;;;;4864777;29;20067;-63
2023/12/13 11:49:11;;;;;;;8.52;2.08;;;16.50;96.70;;;;;;4886229;29;20436;-63
2023/12/13 11:51:40;;;;;;;8.57;1.33;;;16.50;96.70;;;;;;4874403;29;20044;-66
2023/12/13 11:54:11;;;;;;;9.43;1.83;;;16.60;96.70;;;;;;4886637;29;20413;-66
2023/12/13 11:56:41;;;;;;;4.93;1.48;;;16.60;96.70;;;;;;4875768;29;20044;-67
2023/12/13 11:59:10;;;;;;;13.82;1.52;;;16.60;96.70;;;;;;4897641;29;21519;-66
2023/12/13 12:01:40;;;;;;;4.97;1.30;;;16.60;96.70;;;;;;4877717;29;20049;-63
2023/12/13 12:04:11;;;;;;;5.55;1.55;;;16.60;96.70;;;;;;4873429;29;20053;-65
2023/12/13 12:06:46;;;;;;;5.72;1.80;;;16.60;96.70;;;;;;4896126;29;20071;-65
2023/12/13 12:09:17;;;;;;;11.23;1.73;;;16.60;96.70;;;;;;4881493;29;20048;-66
2023/12/13 12:11:53;;;;;;;8.70;1.48;;;16.50;96.70;;;;;;4875882;29;20061;-66
2023/12/13 12:14:26;;;;;;;6.63;1.90;;;16.50;96.70;;;;;;4873801;29;20120;-66
2023/12/13 12:17:00;;;;;;;4.87;1.23;;;16.50;96.70;;;;;;4881314;29;20056;-64
2023/12/13 12:19:31;;;;;;;8.20;1.52;;;16.50;96.70;;;;;;4888063;29;20371;-64
2023/12/13 12:22:02;;;;;;;5.10;1.10;;;16.50;96.70;;;;;;4881142;29;20055;-66
2023/12/13 12:24:36;;;;;;;5.93;1.30;;;16.50;96.70;;;;;;4881479;29;20092;-65
2023/12/13 12:27:10;;;;;;;8.20;1.88;;;16.60;96.70;;;;;;4880719;29;20052;-65
2023/12/13 12:29:40;;;;;;;7.05;1.45;;;16.60;96.70;;;;;;4874602;29;20526;-66
2023/12/13 12:32:09;;;;;;;7.72;1.40;;;16.60;96.70;;;;;;4895093;29;20369;-66
2023/12/13 12:34:40;;;;;;;7.18;1.42;;;16.60;96.70;;;;;;4882018;29;20143;-65
2023/12/13 12:37:10;;;;;;;3.80;1.23;;;16.60;96.70;;;;;;4918146;29;20048;-65
2023/12/13 12:39:43;;;;;;;12.00;1.63;;;16.50;96.70;;;;;;4856355;29;20135;-64
2023/12/13 12:42:13;;;;;;;7.00;1.05;;;16.60;96.70;;;;;;4840888;29;20544;-64
2023/12/13 12:44:41;;;;;;;6.65;1.30;;;16.60;96.70;;;;;;4841238;29;20053;-66
2023/12/13 12:47:10;;;;;;;5.63;1.83;;;16.60;96.70;;;;;;4836782;29;20163;-64
2023/12/13 12:49:40;;;;;;;7.75;1.70;;;16.50;96.70;;;;;;4848862;29;20125;-65
2023/12/13 12:52:10;;;;;;;4.97;1.13;;;16.50;96.70;;;;;;4844620;29;20527;-66
2023/12/13 12:54:40;;;;;;;7.35;1.77;;;16.50;96.70;;;;;;4840917;29;20053;-66
2023/12/13 12:57:08;;;;;;;6.55;1.33;;;16.50;96.70;;;;;;4842996;29;20078;-66